Terminal Aerodrome Forecast
Issued by NWS

Home | Current Version | Previous Version | Text Only | Print | Product List | Glossary On
Versions: 1 2 3 4 5 6 7 8 9 10 11 12 13 14 15 16 17 18 19 20
570
FTUS43 KDLH 181143
TAFHIB
TAF
KHIB 181143Z 1812/1912 12005KT P6SM SKC WS015/19026KT
     FM181600 16009G16KT P6SM FEW250
     FM190300 16007KT P6SM -SHRA BKN060 WS015/18028KT
     FM190700 20006KT P6SM -SHRA BKN026 WS010/19020KT
     FM191100 30006KT P6SM -SHRA BKN010=

USA.gov is the U.S. government's official web portal to all federal, state and local government web resources and services.